createdAt,value
2022-10-19T00:02:30.775Z,14.87
2022-10-19T00:05:19.967Z,14.77
2022-10-19T00:08:08.810Z,14.87
2022-10-19T00:13:50.435Z,14.77
2022-10-19T00:19:24.003Z,14.68
2022-10-19T00:22:14.059Z,14.64
2022-10-19T00:27:49.468Z,14.67
2022-10-19T00:30:38.781Z,14.54
2022-10-19T00:36:18.592Z,14.56
2022-10-19T00:41:55.652Z,14.48
2022-10-19T00:47:54.274Z,14.52
2022-10-19T00:50:43.886Z,14.47
2022-10-19T00:56:18.116Z,14.57
2022-10-19T01:01:47.811Z,14.58
2022-10-19T01:04:38.170Z,14.50
2022-10-19T01:07:27.646Z,14.50
2022-10-19T01:10:17.091Z,14.41
2022-10-19T01:16:09.968Z,14.44
2022-10-19T01:21:54.536Z,14.42
2022-10-19T01:28:04.946Z,14.32
2022-10-19T01:33:43.368Z,14.37
2022-10-19T01:42:09.512Z,14.29
2022-10-19T01:47:47.314Z,14.30
2022-10-19T01:50:38.254Z,14.28
2022-10-19T01:53:28.927Z,14.26
2022-10-19T01:59:09.979Z,14.23
2022-10-19T02:04:50.306Z,14.16
2022-10-19T02:10:29.144Z,14.17
2022-10-19T02:13:17.773Z,14.12
2022-10-19T02:19:00.574Z,14.06
2022-10-19T02:21:50.019Z,14.04
2022-10-19T02:27:32.705Z,14.07
2022-10-19T02:30:22.773Z,14.00
2022-10-19T02:36:06.841Z,14.20
2022-10-19T02:38:55.934Z,14.19
2022-10-19T02:44:37.257Z,13.87
2022-10-19T02:50:16.366Z,14.04
2022-10-19T02:55:52.741Z,13.79
2022-10-19T02:58:40.899Z,13.77
2022-10-19T03:04:14.305Z,13.66
2022-10-19T03:10:00.908Z,13.67
2022-10-19T03:15:35.650Z,13.66
2022-10-19T03:18:24.052Z,13.77
2022-10-19T03:21:15.468Z,13.67
2022-10-19T03:26:48.758Z,13.63
2022-10-19T03:29:38.568Z,13.53
2022-10-19T03:35:20.224Z,13.60
2022-10-19T03:43:49.042Z,13.61
2022-10-19T03:49:40.223Z,13.65
2022-10-19T03:52:27.818Z,13.65
2022-10-19T03:55:16.296Z,13.57
2022-10-19T04:03:38.358Z,13.49
2022-10-19T04:09:17.460Z,13.46
2022-10-19T04:12:09.640Z,13.41
2022-10-19T04:17:48.526Z,13.48
2022-10-19T04:23:29.668Z,13.65
2022-10-19T04:26:18.272Z,13.53
2022-10-19T04:34:45.866Z,13.68
2022-10-19T04:40:23.466Z,13.56
2022-10-19T04:43:11.646Z,13.48
2022-10-19T04:46:03.982Z,13.38
2022-10-19T04:48:54.149Z,13.37
2022-10-19T04:54:30.966Z,13.33
2022-10-19T05:00:01.392Z,13.29
2022-10-19T05:19:57.978Z,13.11
2022-10-19T05:36:57.303Z,13.41
2022-10-19T05:43:34.598Z,13.49
2022-10-19T05:54:55.797Z,13.55
2022-10-19T06:05:18.284Z,13.50
2022-10-19T06:10:49.435Z,13.70
2022-10-19T06:16:26.364Z,13.86
2022-10-19T06:22:05.783Z,14.08
2022-10-19T06:27:39.000Z,14.02
2022-10-19T06:30:27.484Z,14.07
2022-10-19T06:36:10.362Z,14.06
2022-10-19T06:41:46.039Z,14.01
2022-10-19T06:47:30.276Z,14.15
2022-10-19T06:50:18.780Z,14.12
2022-10-19T06:55:48.169Z,14.21
2022-10-19T07:01:29.124Z,14.21
2022-10-19T07:04:18.075Z,14.12
2022-10-19T07:09:55.073Z,14.35
2022-10-19T07:15:30.168Z,14.62
2022-10-19T07:18:21.126Z,14.75
2022-10-19T07:21:10.846Z,14.64
2022-10-19T07:26:48.203Z,14.76
2022-10-19T07:32:32.541Z,14.89
2022-10-19T07:38:12.389Z,15.17
2022-10-19T07:43:55.697Z,15.30
2022-10-19T07:49:45.385Z,15.44
2022-10-19T07:52:36.764Z,15.52
2022-10-19T07:58:10.606Z,15.74
2022-10-19T08:14:57.302Z,15.72
2022-10-19T08:20:32.442Z,15.50
2022-10-19T08:23:22.850Z,15.42
2022-10-19T08:28:54.828Z,15.21
2022-10-19T08:31:43.844Z,15.25
2022-10-19T08:37:40.157Z,15.14
2022-10-19T08:43:13.375Z,15.17
2022-10-19T08:46:05.592Z,15.15
2022-10-19T08:48:56.459Z,15.32
2022-10-19T08:54:28.705Z,15.48
2022-10-19T08:57:24.666Z,15.42
2022-10-19T09:03:00.582Z,15.54
2022-10-19T09:08:36.116Z,15.41
2022-10-19T09:14:16.338Z,15.49
2022-10-19T09:19:55.906Z,15.56
2022-10-19T09:25:35.768Z,15.41
2022-10-19T09:31:06.906Z,15.48
2022-10-19T09:36:50.652Z,15.22
2022-10-19T09:39:35.317Z,15.24
2022-10-19T09:45:21.194Z,15.29
2022-10-19T09:51:16.264Z,15.13
2022-10-19T09:56:55.709Z,15.41
2022-10-19T09:59:44.704Z,15.51
2022-10-19T10:02:34.939Z,15.80
2022-10-19T10:08:28.139Z,16.15
2022-10-19T10:11:19.098Z,16.27
2022-10-19T10:16:57.306Z,16.34
2022-10-19T10:19:53.845Z,16.34
2022-10-19T10:25:36.057Z,16.31
2022-10-19T10:34:11.155Z,16.41
2022-10-19T10:39:47.670Z,16.67
2022-10-19T10:45:34.156Z,16.85
2022-10-19T10:51:23.570Z,17.10
2022-10-19T10:54:23.804Z,17.24
2022-10-19T11:00:16.481Z,17.76
2022-10-19T11:03:11.768Z,17.73
2022-10-19T11:09:03.595Z,18.31
2022-10-19T11:14:51.498Z,18.24
2022-10-19T11:17:56.697Z,18.20
2022-10-19T11:23:58.905Z,17.71
2022-10-19T11:30:07.483Z,16.64
2022-10-19T11:33:08.418Z,16.54
2022-10-19T11:38:54.839Z,17.08
2022-10-19T11:44:37.670Z,17.21
2022-10-19T11:51:20.922Z,17.22
2022-10-19T11:57:03.326Z,17.60
2022-10-19T12:03:24.217Z,17.66
2022-10-19T12:09:12.701Z,17.92
2022-10-19T12:15:29.265Z,17.46
2022-10-19T12:21:13.121Z,17.62
2022-10-19T12:27:05.779Z,17.95
2022-10-19T12:32:59.733Z,18.04
2022-10-19T12:38:46.892Z,18.57
2022-10-19T12:42:03.239Z,18.10
2022-10-19T12:45:38.485Z,18.13
2022-10-19T12:51:20.513Z,18.00
2022-10-19T12:56:59.900Z,17.92
2022-10-19T13:03:15.556Z,17.82
2022-10-19T13:09:05.487Z,18.00
2022-10-19T13:15:39.913Z,18.74
2022-10-19T13:19:13.518Z,18.68
2022-10-19T13:22:29.088Z,18.72
2022-10-19T13:28:54.978Z,18.95
2022-10-19T13:34:33.769Z,19.30
2022-10-19T13:43:54.154Z,19.34
2022-10-19T13:47:03.955Z,19.44
2022-10-19T13:53:26.473Z,19.64
2022-10-19T13:57:04.317Z,19.24
2022-10-19T14:03:18.689Z,19.08
2022-10-19T14:06:22.273Z,19.09
2022-10-19T14:12:36.703Z,19.66
2022-10-19T14:15:51.222Z,19.57
2022-10-19T14:18:50.699Z,19.52
2022-10-19T14:21:52.835Z,19.54
2022-10-19T14:25:17.309Z,19.59
2022-10-19T14:31:20.935Z,19.20
2022-10-19T14:34:18.272Z,19.09
2022-10-19T14:37:11.013Z,18.91
2022-10-19T14:43:00.858Z,18.91
2022-10-19T14:46:13.525Z,18.93
2022-10-19T14:49:09.779Z,19.05
2022-10-19T14:52:10.201Z,19.03
2022-10-19T15:04:01.534Z,19.37
2022-10-19T15:10:05.082Z,19.63
2022-10-19T15:16:01.063Z,19.52
2022-10-19T15:21:44.523Z,19.14
2022-10-19T15:25:02.690Z,18.93
2022-10-19T15:28:07.409Z,18.79
2022-10-19T15:34:01.253Z,18.47
2022-10-19T15:39:49.568Z,18.20
2022-10-19T15:45:33.990Z,18.26
2022-10-19T15:48:56.343Z,18.22
2022-10-19T15:54:51.328Z,18.08
2022-10-19T16:01:13.830Z,17.99
2022-10-19T16:04:14.224Z,17.85
2022-10-19T16:07:20.648Z,17.77
2022-10-19T16:13:25.894Z,17.86
2022-10-19T16:19:04.472Z,17.96
2022-10-19T16:25:25.289Z,17.68
2022-10-19T16:31:27.449Z,17.53
2022-10-19T16:37:22.466Z,17.30
2022-10-19T16:43:13.191Z,17.36
2022-10-19T16:46:13.528Z,17.15
2022-10-19T17:03:30.580Z,16.62
2022-10-19T17:06:35.634Z,16.46
2022-10-19T17:09:42.202Z,16.51
2022-10-19T17:15:37.545Z,16.35
2022-10-19T17:21:06.399Z,16.17
2022-10-19T17:24:21.159Z,16.16
2022-10-19T17:30:27.442Z,16.15
2022-10-19T17:33:25.506Z,16.12
2022-10-19T17:42:29.709Z,16.15
2022-10-19T17:45:32.003Z,16.01
2022-10-19T17:48:44.416Z,16.13
2022-10-19T17:55:13.685Z,15.91
2022-10-19T18:04:31.629Z,16.05
2022-10-19T18:10:27.910Z,15.91
2022-10-19T18:13:46.671Z,15.88
2022-10-19T18:19:31.907Z,15.77
2022-10-19T18:25:21.755Z,15.77
2022-10-19T18:31:45.245Z,15.77
2022-10-19T18:34:39.432Z,15.81
2022-10-19T18:40:42.548Z,15.83
2022-10-19T18:46:56.670Z,15.71
2022-10-19T18:53:03.973Z,15.59
2022-10-19T19:00:09.732Z,15.35
2022-10-19T19:03:26.127Z,15.24
2022-10-19T19:10:15.862Z,15.29
2022-10-19T19:16:07.769Z,15.28
2022-10-19T19:19:27.300Z,15.21
2022-10-19T19:25:51.882Z,15.33
2022-10-19T19:31:42.047Z,15.23
2022-10-19T19:38:06.842Z,15.30
2022-10-19T19:43:43.611Z,15.25
2022-10-19T19:47:02.304Z,15.10
2022-10-19T19:53:15.676Z,15.08
2022-10-19T19:56:11.245Z,15.04
2022-10-19T20:02:54.170Z,15.09
2022-10-19T20:12:05.058Z,14.64
2022-10-19T20:14:59.520Z,14.69
2022-10-19T20:23:29.153Z,14.74
2022-10-19T20:29:27.615Z,14.70
2022-10-19T20:35:30.095Z,14.63
2022-10-19T20:38:45.749Z,14.60
2022-10-19T20:41:59.025Z,14.46
2022-10-19T20:51:31.721Z,14.62
2022-10-19T20:57:31.345Z,14.56
2022-10-19T21:00:25.963Z,14.54
2022-10-19T21:06:40.424Z,14.49
2022-10-19T21:12:36.441Z,14.47
2022-10-19T21:18:41.700Z,14.49
2022-10-19T21:21:48.655Z,14.52
2022-10-19T21:27:49.729Z,14.33
2022-10-19T21:31:03.169Z,14.44
2022-10-19T21:36:45.530Z,14.44
2022-10-19T21:39:36.900Z,14.40
2022-10-19T21:42:29.273Z,14.46
2022-10-19T21:48:03.956Z,14.47
2022-10-19T21:53:45.386Z,14.56
2022-10-19T21:59:52.453Z,14.43
2022-10-19T22:02:44.164Z,14.54
2022-10-19T22:09:06.274Z,14.52
2022-10-19T22:15:01.540Z,14.42
2022-10-19T22:20:49.498Z,14.36
2022-10-19T22:23:44.894Z,14.40
2022-10-19T22:26:46.938Z,14.34
2022-10-19T22:32:33.134Z,14.35
2022-10-19T22:35:25.936Z,14.29
2022-10-19T22:41:39.898Z,14.33
2022-10-19T22:45:21.196Z,14.32
2022-10-19T22:49:02.922Z,14.28
2022-10-19T22:52:44.797Z,14.12
2022-10-19T22:58:21.375Z,14.04
2022-10-19T23:04:01.996Z,14.00
2022-10-19T23:09:37.373Z,14.03
2022-10-19T23:12:27.827Z,13.99
2022-10-19T23:18:03.789Z,14.03
2022-10-19T23:20:55.968Z,13.98
2022-10-19T23:26:38.578Z,14.06
2022-10-19T23:32:15.517Z,14.01
2022-10-19T23:37:50.718Z,13.82
2022-10-19T23:43:25.796Z,14.04
2022-10-19T23:46:14.366Z,13.88
2022-10-19T23:51:55.127Z,13.85
2022-10-19T23:57:31.251Z,13.82
